sensor_id;sensor_type;location;lat;lon;timestamp;temperature;humidity
19567;DHT22;9930;49.240;8.548;2023-03-19T00:00:45;14.40;55.70
19567;DHT22;9930;49.240;8.548;2023-03-19T00:03:13;14.40;55.80
19567;DHT22;9930;49.240;8.548;2023-03-19T00:05:38;14.30;56.00
19567;DHT22;9930;49.240;8.548;2023-03-19T00:08:05;14.30;56.10
19567;DHT22;9930;49.240;8.548;2023-03-19T00:10:37;14.30;56.40
19567;DHT22;9930;49.240;8.548;2023-03-19T00:13:06;14.30;56.60
19567;DHT22;9930;49.240;8.548;2023-03-19T00:15:36;14.30;56.60
19567;DHT22;9930;49.240;8.548;2023-03-19T00:18:02;14.30;56.80
19567;DHT22;9930;49.240;8.548;2023-03-19T00:20:32;14.20;56.70
19567;DHT22;9930;49.240;8.548;2023-03-19T00:23:01;14.20;56.90
19567;DHT22;9930;49.240;8.548;2023-03-19T00:25:27;14.20;56.90
19567;DHT22;9930;49.240;8.548;2023-03-19T00:27:55;14.20;56.90
19567;DHT22;9930;49.240;8.548;2023-03-19T00:30:22;14.20;56.80
19567;DHT22;9930;49.240;8.548;2023-03-19T00:32:50;14.20;57.00
19567;DHT22;9930;49.240;8.548;2023-03-19T00:35:16;14.20;57.20
19567;DHT22;9930;49.240;8.548;2023-03-19T00:37:45;14.30;57.30
19567;DHT22;9930;49.240;8.548;2023-03-19T00:40:11;14.30;57.50
19567;DHT22;9930;49.240;8.548;2023-03-19T00:42:37;14.30;57.50
19567;DHT22;9930;49.240;8.548;2023-03-19T00:45:06;14.30;57.60
19567;DHT22;9930;49.240;8.548;2023-03-19T00:47:32;14.30;57.70
19567;DHT22;9930;49.240;8.548;2023-03-19T00:50:01;14.30;57.80
19567;DHT22;9930;49.240;8.548;2023-03-19T00:52:32;14.30;57.80
19567;DHT22;9930;49.240;8.548;2023-03-19T00:55:00;14.20;57.80
19567;DHT22;9930;49.240;8.548;2023-03-19T00:57:29;14.20;57.90
19567;DHT22;9930;49.240;8.548;2023-03-19T01:00:01;14.20;58.10
19567;DHT22;9930;49.240;8.548;2023-03-19T01:02:30;14.20;58.10
19567;DHT22;9930;49.240;8.548;2023-03-19T01:04:56;14.20;58.30
19567;DHT22;9930;49.240;8.548;2023-03-19T01:07:22;14.20;58.50
19567;DHT22;9930;49.240;8.548;2023-03-19T01:09:52;14.20;58.20
19567;DHT22;9930;49.240;8.548;2023-03-19T01:12:19;14.20;58.50
19567;DHT22;9930;49.240;8.548;2023-03-19T01:14:46;14.20;58.50
19567;DHT22;9930;49.240;8.548;2023-03-19T01:17:11;14.20;58.70
19567;DHT22;9930;49.240;8.548;2023-03-19T01:19:37;14.10;58.90
19567;DHT22;9930;49.240;8.548;2023-03-19T01:22:03;14.10;59.10
19567;DHT22;9930;49.240;8.548;2023-03-19T01:24:31;14.10;59.30
19567;DHT22;9930;49.240;8.548;2023-03-19T01:26:59;14.10;59.40
19567;DHT22;9930;49.240;8.548;2023-03-19T01:29:25;14.10;59.40
19567;DHT22;9930;49.240;8.548;2023-03-19T01:31:51;14.00;59.50
19567;DHT22;9930;49.240;8.548;2023-03-19T01:34:19;14.00;59.60
19567;DHT22;9930;49.240;8.548;2023-03-19T01:36:45;14.00;59.70
19567;DHT22;9930;49.240;8.548;2023-03-19T01:39:11;14.00;59.80
19567;DHT22;9930;49.240;8.548;2023-03-19T01:41:37;14.00;59.90
19567;DHT22;9930;49.240;8.548;2023-03-19T01:44:02;14.00;60.00
19567;DHT22;9930;49.240;8.548;2023-03-19T01:46:47;13.90;60.10
19567;DHT22;9930;49.240;8.548;2023-03-19T01:49:18;13.90;60.00
19567;DHT22;9930;49.240;8.548;2023-03-19T01:51:46;13.80;60.20
19567;DHT22;9930;49.240;8.548;2023-03-19T01:54:14;13.80;60.20
19567;DHT22;9930;49.240;8.548;2023-03-19T01:56:44;13.80;60.30
19567;DHT22;9930;49.240;8.548;2023-03-19T01:59:24;13.80;60.40
19567;DHT22;9930;49.240;8.548;2023-03-19T02:02:12;13.70;60.90
19567;DHT22;9930;49.240;8.548;2023-03-19T02:04:51;13.70;60.70
19567;DHT22;9930;49.240;8.548;2023-03-19T02:07:21;13.60;60.50
19567;DHT22;9930;49.240;8.548;2023-03-19T02:09:47;13.70;60.70
19567;DHT22;9930;49.240;8.548;2023-03-19T02:12:13;13.60;60.80
19567;DHT22;9930;49.240;8.548;2023-03-19T02:14:40;13.60;60.90
19567;DHT22;9930;49.240;8.548;2023-03-19T02:17:06;13.60;61.00
19567;DHT22;9930;49.240;8.548;2023-03-19T02:19:58;13.60;61.20
19567;DHT22;9930;49.240;8.548;2023-03-19T02:22:34;13.50;62.00
19567;DHT22;9930;49.240;8.548;2023-03-19T02:25:12;13.50;61.10
19567;DHT22;9930;49.240;8.548;2023-03-19T02:27:44;13.50;61.60
19567;DHT22;9930;49.240;8.548;2023-03-19T02:30:23;13.50;61.30
19567;DHT22;9930;49.240;8.548;2023-03-19T02:32:56;13.50;61.80
19567;DHT22;9930;49.240;8.548;2023-03-19T02:35:30;13.50;61.60
19567;DHT22;9930;49.240;8.548;2023-03-19T02:38:00;13.50;61.70
19567;DHT22;9930;49.240;8.548;2023-03-19T02:40:33;13.50;61.70
19567;DHT22;9930;49.240;8.548;2023-03-19T02:43:03;13.50;61.70
19567;DHT22;9930;49.240;8.548;2023-03-19T02:45:30;13.50;61.70
19567;DHT22;9930;49.240;8.548;2023-03-19T02:47:57;13.50;61.80
19567;DHT22;9930;49.240;8.548;2023-03-19T02:50:31;13.50;61.80
19567;DHT22;9930;49.240;8.548;2023-03-19T02:52:59;13.50;61.80
19567;DHT22;9930;49.240;8.548;2023-03-19T02:55:26;13.50;61.90
19567;DHT22;9930;49.240;8.548;2023-03-19T02:57:52;13.50;61.90
19567;DHT22;9930;49.240;8.548;2023-03-19T03:00:20;13.50;62.00
19567;DHT22;9930;49.240;8.548;2023-03-19T03:02:45;13.60;62.10
19567;DHT22;9930;49.240;8.548;2023-03-19T03:05:12;13.60;62.10
19567;DHT22;9930;49.240;8.548;2023-03-19T03:07:45;13.60;62.10
19567;DHT22;9930;49.240;8.548;2023-03-19T03:10:17;13.60;62.40
19567;DHT22;9930;49.240;8.548;2023-03-19T03:12:43;13.60;62.10
19567;DHT22;9930;49.240;8.548;2023-03-19T03:15:09;13.60;62.20
19567;DHT22;9930;49.240;8.548;2023-03-19T03:17:39;13.60;62.20
19567;DHT22;9930;49.240;8.548;2023-03-19T03:20:06;13.60;62.30
19567;DHT22;9930;49.240;8.548;2023-03-19T03:22:35;13.60;62.20
19567;DHT22;9930;49.240;8.548;2023-03-19T03:25:02;13.60;62.30
19567;DHT22;9930;49.240;8.548;2023-03-19T03:27:33;13.60;62.20
19567;DHT22;9930;49.240;8.548;2023-03-19T03:30:00;13.60;62.40
19567;DHT22;9930;49.240;8.548;2023-03-19T03:32:33;13.60;62.30
19567;DHT22;9930;49.240;8.548;2023-03-19T03:35:00;13.60;62.30
19567;DHT22;9930;49.240;8.548;2023-03-19T03:37:28;13.60;62.20
19567;DHT22;9930;49.240;8.548;2023-03-19T03:39:57;13.70;62.30
19567;DHT22;9930;49.240;8.548;2023-03-19T03:42:23;13.70;62.30
19567;DHT22;9930;49.240;8.548;2023-03-19T03:44:51;13.70;62.30
19567;DHT22;9930;49.240;8.548;2023-03-19T03:47:17;13.70;62.40
19567;DHT22;9930;49.240;8.548;2023-03-19T03:49:43;13.70;62.30
19567;DHT22;9930;49.240;8.548;2023-03-19T03:52:10;13.70;62.40
19567;DHT22;9930;49.240;8.548;2023-03-19T03:54:36;13.70;62.40
19567;DHT22;9930;49.240;8.548;2023-03-19T03:57:04;13.70;62.50
19567;DHT22;9930;49.240;8.548;2023-03-19T03:59:30;13.70;62.50
19567;DHT22;9930;49.240;8.548;2023-03-19T04:01:59;13.70;62.50
19567;DHT22;9930;49.240;8.548;2023-03-19T04:04:32;13.70;62.50
19567;DHT22;9930;49.240;8.548;2023-03-19T04:07:03;13.80;62.50
19567;DHT22;9930;49.240;8.548;2023-03-19T04:09:32;13.70;62.70
19567;DHT22;9930;49.240;8.548;2023-03-19T04:11:58;13.70;62.60
19567;DHT22;9930;49.240;8.548;2023-03-19T04:14:32;13.70;62.50
19567;DHT22;9930;49.240;8.548;2023-03-19T04:17:06;13.70;62.50
19567;DHT22;9930;49.240;8.548;2023-03-19T04:19:33;13.70;62.80
19567;DHT22;9930;49.240;8.548;2023-03-19T04:22:02;13.70;62.60
19567;DHT22;9930;49.240;8.548;2023-03-19T04:24:28;13.70;62.70
19567;DHT22;9930;49.240;8.548;2023-03-19T04:26:55;13.70;62.70
19567;DHT22;9930;49.240;8.548;2023-03-19T04:29:21;13.60;62.70
19567;DHT22;9930;49.240;8.548;2023-03-19T04:31:49;13.60;62.70
19567;DHT22;9930;49.240;8.548;2023-03-19T04:34:15;13.60;62.70
19567;DHT22;9930;49.240;8.548;2023-03-19T04:36:44;13.60;62.70
19567;DHT22;9930;49.240;8.548;2023-03-19T04:39:09;13.60;62.70
19567;DHT22;9930;49.240;8.548;2023-03-19T04:41:35;13.60;62.80
19567;DHT22;9930;49.240;8.548;2023-03-19T04:44:04;13.60;62.80
19567;DHT22;9930;49.240;8.548;2023-03-19T04:46:33;13.60;62.90
19567;DHT22;9930;49.240;8.548;2023-03-19T04:49:00;13.60;62.90
19567;DHT22;9930;49.240;8.548;2023-03-19T04:51:26;13.60;62.80
19567;DHT22;9930;49.240;8.548;2023-03-19T04:53:58;13.60;62.90
19567;DHT22;9930;49.240;8.548;2023-03-19T04:56:26;13.70;63.00
19567;DHT22;9930;49.240;8.548;2023-03-19T04:58:52;13.60;62.90
19567;DHT22;9930;49.240;8.548;2023-03-19T05:01:19;13.70;63.00
19567;DHT22;9930;49.240;8.548;2023-03-19T05:03:45;13.70;62.90
19567;DHT22;9930;49.240;8.548;2023-03-19T05:06:11;13.70;62.90
19567;DHT22;9930;49.240;8.548;2023-03-19T05:08:36;13.70;62.90
19567;DHT22;9930;49.240;8.548;2023-03-19T05:11:02;13.70;62.90
19567;DHT22;9930;49.240;8.548;2023-03-19T05:13:31;13.80;62.90
19567;DHT22;9930;49.240;8.548;2023-03-19T05:15:59;13.80;62.90
19567;DHT22;9930;49.240;8.548;2023-03-19T05:18:30;13.80;62.90
19567;DHT22;9930;49.240;8.548;2023-03-19T05:21:04;13.80;62.90
19567;DHT22;9930;49.240;8.548;2023-03-19T05:23:35;13.80;62.90
19567;DHT22;9930;49.240;8.548;2023-03-19T05:26:01;13.80;62.80
19567;DHT22;9930;49.240;8.548;2023-03-19T05:28:27;13.80;62.80
19567;DHT22;9930;49.240;8.548;2023-03-19T05:30:53;13.80;62.90
19567;DHT22;9930;49.240;8.548;2023-03-19T05:33:19;13.80;62.80
19567;DHT22;9930;49.240;8.548;2023-03-19T05:35:50;13.80;62.90
19567;DHT22;9930;49.240;8.548;2023-03-19T05:38:17;13.90;63.00
19567;DHT22;9930;49.240;8.548;2023-03-19T05:40:43;13.90;63.00
19567;DHT22;9930;49.240;8.548;2023-03-19T05:43:09;13.90;63.00
19567;DHT22;9930;49.240;8.548;2023-03-19T05:45:38;13.80;62.90
19567;DHT22;9930;49.240;8.548;2023-03-19T05:48:05;13.80;62.90
19567;DHT22;9930;49.240;8.548;2023-03-19T05:50:31;13.80;62.90
19567;DHT22;9930;49.240;8.548;2023-03-19T05:52:59;13.80;62.90
19567;DHT22;9930;49.240;8.548;2023-03-19T05:55:27;13.90;62.90
19567;DHT22;9930;49.240;8.548;2023-03-19T05:57:53;13.80;62.90
19567;DHT22;9930;49.240;8.548;2023-03-19T06:00:20;13.80;62.90
19567;DHT22;9930;49.240;8.548;2023-03-19T06:02:46;13.80;62.90
19567;DHT22;9930;49.240;8.548;2023-03-19T06:05:14;13.80;62.90
19567;DHT22;9930;49.240;8.548;2023-03-19T06:07:40;13.80;63.00
19567;DHT22;9930;49.240;8.548;2023-03-19T06:10:08;13.80;63.00
19567;DHT22;9930;49.240;8.548;2023-03-19T06:12:34;13.80;63.10
19567;DHT22;9930;49.240;8.548;2023-03-19T06:15:02;13.80;63.20
19567;DHT22;9930;49.240;8.548;2023-03-19T06:17:28;13.80;63.30
19567;DHT22;9930;49.240;8.548;2023-03-19T06:19:59;13.80;63.30
19567;DHT22;9930;49.240;8.548;2023-03-19T06:22:25;13.80;63.40
19567;DHT22;9930;49.240;8.548;2023-03-19T06:24:51;13.80;63.40
19567;DHT22;9930;49.240;8.548;2023-03-19T06:27:19;13.80;63.50
19567;DHT22;9930;49.240;8.548;2023-03-19T06:29:45;13.80;63.50
19567;DHT22;9930;49.240;8.548;2023-03-19T06:32:13;13.80;63.60
19567;DHT22;9930;49.240;8.548;2023-03-19T06:34:39;13.90;63.70
19567;DHT22;9930;49.240;8.548;2023-03-19T06:37:08;13.80;63.70
19567;DHT22;9930;49.240;8.548;2023-03-19T06:39:36;13.90;63.80
19567;DHT22;9930;49.240;8.548;2023-03-19T06:42:05;13.90;63.80
19567;DHT22;9930;49.240;8.548;2023-03-19T06:44:31;13.90;63.80
19567;DHT22;9930;49.240;8.548;2023-03-19T06:46:58;13.90;63.70
19567;DHT22;9930;49.240;8.548;2023-03-19T06:49:24;13.90;63.70
19567;DHT22;9930;49.240;8.548;2023-03-19T06:51:49;14.00;63.80
19567;DHT22;9930;49.240;8.548;2023-03-19T06:54:18;14.00;63.80
19567;DHT22;9930;49.240;8.548;2023-03-19T06:56:43;14.10;63.80
19567;DHT22;9930;49.240;8.548;2023-03-19T06:59:10;14.10;63.70
19567;DHT22;9930;49.240;8.548;2023-03-19T07:01:40;14.10;63.70
19567;DHT22;9930;49.240;8.548;2023-03-19T07:04:08;14.20;63.70
19567;DHT22;9930;49.240;8.548;2023-03-19T07:06:37;14.20;63.60
19567;DHT22;9930;49.240;8.548;2023-03-19T07:09:05;14.30;63.60
19567;DHT22;9930;49.240;8.548;2023-03-19T07:11:32;14.30;63.60
19567;DHT22;9930;49.240;8.548;2023-03-19T07:13:58;14.30;63.60
19567;DHT22;9930;49.240;8.548;2023-03-19T07:16:25;14.40;63.60
19567;DHT22;9930;49.240;8.548;2023-03-19T07:18:51;14.40;63.60
19567;DHT22;9930;49.240;8.548;2023-03-19T07:21:19;14.50;63.70
19567;DHT22;9930;49.240;8.548;2023-03-19T07:23:47;14.50;63.70
19567;DHT22;9930;49.240;8.548;2023-03-19T07:26:16;14.60;63.80
19567;DHT22;9930;49.240;8.548;2023-03-19T07:28:45;14.60;63.80
19567;DHT22;9930;49.240;8.548;2023-03-19T07:31:11;14.70;63.70
19567;DHT22;9930;49.240;8.548;2023-03-19T07:33:37;14.70;63.60
19567;DHT22;9930;49.240;8.548;2023-03-19T07:36:03;14.80;63.70
19567;DHT22;9930;49.240;8.548;2023-03-19T07:38:34;14.90;63.60
19567;DHT22;9930;49.240;8.548;2023-03-19T07:41:01;14.90;63.60
19567;DHT22;9930;49.240;8.548;2023-03-19T07:43:30;15.00;63.50
19567;DHT22;9930;49.240;8.548;2023-03-19T07:45:56;15.00;63.50
19567;DHT22;9930;49.240;8.548;2023-03-19T07:48:21;15.10;63.50
19567;DHT22;9930;49.240;8.548;2023-03-19T07:50:49;15.20;63.50
19567;DHT22;9930;49.240;8.548;2023-03-19T07:53:18;15.20;63.30
19567;DHT22;9930;49.240;8.548;2023-03-19T07:55:47;15.30;63.30
19567;DHT22;9930;49.240;8.548;2023-03-19T07:58:13;15.30;63.30
19567;DHT22;9930;49.240;8.548;2023-03-19T08:00:39;15.30;63.40
19567;DHT22;9930;49.240;8.548;2023-03-19T08:03:05;15.40;63.40
19567;DHT22;9930;49.240;8.548;2023-03-19T08:05:33;15.50;63.30
19567;DHT22;9930;49.240;8.548;2023-03-19T08:08:02;15.60;63.10
19567;DHT22;9930;49.240;8.548;2023-03-19T08:10:28;15.70;63.10
19567;DHT22;9930;49.240;8.548;2023-03-19T08:12:53;15.70;62.90
19567;DHT22;9930;49.240;8.548;2023-03-19T08:15:19;15.80;62.90
19567;DHT22;9930;49.240;8.548;2023-03-19T08:17:45;15.90;62.80
19567;DHT22;9930;49.240;8.548;2023-03-19T08:20:13;15.90;62.60
19567;DHT22;9930;49.240;8.548;2023-03-19T08:22:43;16.00;62.50
19567;DHT22;9930;49.240;8.548;2023-03-19T08:25:13;16.10;62.40
19567;DHT22;9930;49.240;8.548;2023-03-19T08:27:42;16.10;62.30
19567;DHT22;9930;49.240;8.548;2023-03-19T08:30:10;16.20;62.40
19567;DHT22;9930;49.240;8.548;2023-03-19T08:32:39;16.30;62.60
19567;DHT22;9930;49.240;8.548;2023-03-19T08:35:09;16.50;62.60
19567;DHT22;9930;49.240;8.548;2023-03-19T08:37:38;16.60;62.50
19567;DHT22;9930;49.240;8.548;2023-03-19T08:40:06;16.80;62.30
19567;DHT22;9930;49.240;8.548;2023-03-19T08:42:35;17.00;62.20
19567;DHT22;9930;49.240;8.548;2023-03-19T08:45:03;17.10;62.10
19567;DHT22;9930;49.240;8.548;2023-03-19T08:47:29;17.30;61.90
19567;DHT22;9930;49.240;8.548;2023-03-19T08:50:01;17.40;61.50
19567;DHT22;9930;49.240;8.548;2023-03-19T08:52:26;17.60;61.20
19567;DHT22;9930;49.240;8.548;2023-03-19T08:54:52;17.70;60.80
19567;DHT22;9930;49.240;8.548;2023-03-19T08:57:20;17.80;60.70
19567;DHT22;9930;49.240;8.548;2023-03-19T08:59:46;18.00;60.60
19567;DHT22;9930;49.240;8.548;2023-03-19T09:02:12;18.10;60.30
19567;DHT22;9930;49.240;8.548;2023-03-19T09:04:42;18.20;59.80
19567;DHT22;9930;49.240;8.548;2023-03-19T09:07:10;18.20;59.40
19567;DHT22;9930;49.240;8.548;2023-03-19T09:09:38;18.30;59.20
19567;DHT22;9930;49.240;8.548;2023-03-19T09:12:05;18.40;59.10
19567;DHT22;9930;49.240;8.548;2023-03-19T09:14:35;18.40;58.90
19567;DHT22;9930;49.240;8.548;2023-03-19T09:17:04;18.50;58.60
19567;DHT22;9930;49.240;8.548;2023-03-19T09:19:32;18.50;58.60
19567;DHT22;9930;49.240;8.548;2023-03-19T09:22:03;18.60;58.60
19567;DHT22;9930;49.240;8.548;2023-03-19T09:24:31;18.60;58.40
19567;DHT22;9930;49.240;8.548;2023-03-19T09:26:57;18.70;58.10
19567;DHT22;9930;49.240;8.548;2023-03-19T09:29:25;18.70;58.00
19567;DHT22;9930;49.240;8.548;2023-03-19T09:31:51;18.80;57.90
19567;DHT22;9930;49.240;8.548;2023-03-19T09:34:19;18.80;57.80
19567;DHT22;9930;49.240;8.548;2023-03-19T09:36:44;18.80;57.60
19567;DHT22;9930;49.240;8.548;2023-03-19T09:39:10;18.80;57.30
19567;DHT22;9930;49.240;8.548;2023-03-19T09:44:39;18.80;56.90
19567;DHT22;9930;49.240;8.548;2023-03-19T09:50:03;18.80;56.80
19567;DHT22;9930;49.240;8.548;2023-03-19T09:55:47;18.90;56.80
19567;DHT22;9930;49.240;8.548;2023-03-19T09:58:21;18.90;56.60
19567;DHT22;9930;49.240;8.548;2023-03-19T10:00:53;19.00;57.00
19567;DHT22;9930;49.240;8.548;2023-03-19T10:03:59;19.20;57.10
19567;DHT22;9930;49.240;8.548;2023-03-19T10:06:33;19.20;56.70
19567;DHT22;9930;49.240;8.548;2023-03-19T10:09:37;19.30;56.80
19567;DHT22;9930;49.240;8.548;2023-03-19T10:12:19;19.40;56.30
19567;DHT22;9930;49.240;8.548;2023-03-19T10:15:14;19.60;56.60
19567;DHT22;9930;49.240;8.548;2023-03-19T10:26:08;20.10;55.60
19567;DHT22;9930;49.240;8.548;2023-03-19T10:28:39;20.30;55.80
19567;DHT22;9930;49.240;8.548;2023-03-19T10:31:27;20.40;55.40
19567;DHT22;9930;49.240;8.548;2023-03-19T10:36:47;20.60;54.40
19567;DHT22;9930;49.240;8.548;2023-03-19T10:39:14;20.60;54.80
19567;DHT22;9930;49.240;8.548;2023-03-19T10:41:48;20.80;54.50
19567;DHT22;9930;49.240;8.548;2023-03-19T10:44:37;20.80;54.30
19567;DHT22;9930;49.240;8.548;2023-03-19T10:47:12;20.90;53.60
19567;DHT22;9930;49.240;8.548;2023-03-19T10:49:44;21.00;53.60
19567;DHT22;9930;49.240;8.548;2023-03-19T10:52:19;21.00;53.20
19567;DHT22;9930;49.240;8.548;2023-03-19T10:54:54;20.90;52.80
19567;DHT22;9930;49.240;8.548;2023-03-19T10:57:25;20.80;53.00
19567;DHT22;9930;49.240;8.548;2023-03-19T10:59:52;20.80;53.10
19567;DHT22;9930;49.240;8.548;2023-03-19T11:02:20;20.80;53.00
19567;DHT22;9930;49.240;8.548;2023-03-19T11:05:26;20.80;52.90
19567;DHT22;9930;49.240;8.548;2023-03-19T11:07:56;20.70;52.60
19567;DHT22;9930;49.240;8.548;2023-03-19T11:10:27;20.70;53.10
19567;DHT22;9930;49.240;8.548;2023-03-19T11:13:22;20.70;52.90
19567;DHT22;9930;49.240;8.548;2023-03-19T11:15:50;20.70;52.70
19567;DHT22;9930;49.240;8.548;2023-03-19T11:18:38;20.80;53.00
19567;DHT22;9930;49.240;8.548;2023-03-19T11:21:24;20.80;52.60
19567;DHT22;9930;49.240;8.548;2023-03-19T11:24:02;20.90;52.80
19567;DHT22;9930;49.240;8.548;2023-03-19T11:26:34;21.00;52.80
19567;DHT22;9930;49.240;8.548;2023-03-19T11:29:03;21.10;52.90
19567;DHT22;9930;49.240;8.548;2023-03-19T11:34:52;21.20;52.00
19567;DHT22;9930;49.240;8.548;2023-03-19T11:46:28;21.20;51.60
19567;DHT22;9930;49.240;8.548;2023-03-19T11:58:19;21.00;51.30
19567;DHT22;9930;49.240;8.548;2023-03-19T12:07:20;21.00;51.50
19567;DHT22;9930;49.240;8.548;2023-03-19T12:30:48;21.50;50.60
19567;DHT22;9930;49.240;8.548;2023-03-19T12:33:51;21.40;50.30
19567;DHT22;9930;49.240;8.548;2023-03-19T12:36:31;21.40;50.40
19567;DHT22;9930;49.240;8.548;2023-03-19T12:39:11;21.30;50.30
19567;DHT22;9930;49.240;8.548;2023-03-19T12:41:45;21.30;50.40
19567;DHT22;9930;49.240;8.548;2023-03-19T12:44:33;21.20;50.40
19567;DHT22;9930;49.240;8.548;2023-03-19T12:47:07;21.20;50.40
19567;DHT22;9930;49.240;8.548;2023-03-19T12:49:43;21.10;50.50
19567;DHT22;9930;49.240;8.548;2023-03-19T12:52:39;21.10;50.50
19567;DHT22;9930;49.240;8.548;2023-03-19T13:01:15;21.00;50.70
19567;DHT22;9930;49.240;8.548;2023-03-19T13:04:22;20.90;50.80
19567;DHT22;9930;49.240;8.548;2023-03-19T13:07:21;20.90;50.70
19567;DHT22;9930;49.240;8.548;2023-03-19T13:10:07;20.80;50.40
19567;DHT22;9930;49.240;8.548;2023-03-19T13:12:40;20.80;50.50
19567;DHT22;9930;49.240;8.548;2023-03-19T13:15:29;20.80;50.60
19567;DHT22;9930;49.240;8.548;2023-03-19T13:18:39;20.70;50.60
19567;DHT22;9930;49.240;8.548;2023-03-19T13:21:30;20.60;50.60
19567;DHT22;9930;49.240;8.548;2023-03-19T13:26:59;20.60;50.80
19567;DHT22;9930;49.240;8.548;2023-03-19T13:29:30;20.50;50.90
19567;DHT22;9930;49.240;8.548;2023-03-19T13:32:08;20.50;50.80
19567;DHT22;9930;49.240;8.548;2023-03-19T13:35:08;20.40;51.00
19567;DHT22;9930;49.240;8.548;2023-03-19T13:37:46;20.40;51.20
19567;DHT22;9930;49.240;8.548;2023-03-19T13:43:21;20.30;51.60
19567;DHT22;9930;49.240;8.548;2023-03-19T13:45:51;20.30;51.70
19567;DHT22;9930;49.240;8.548;2023-03-19T13:48:37;20.30;51.80
19567;DHT22;9930;49.240;8.548;2023-03-19T13:59:35;20.10;52.30
19567;DHT22;9930;49.240;8.548;2023-03-19T14:05:06;20.00;52.60
19567;DHT22;9930;49.240;8.548;2023-03-19T14:07:43;20.00;52.70
19567;DHT22;9930;49.240;8.548;2023-03-19T14:10:20;19.90;52.60
19567;DHT22;9930;49.240;8.548;2023-03-19T14:12:51;19.80;52.80
19567;DHT22;9930;49.240;8.548;2023-03-19T14:15:32;19.80;53.00
19567;DHT22;9930;49.240;8.548;2023-03-19T14:18:03;19.80;53.20
19567;DHT22;9930;49.240;8.548;2023-03-19T14:20:45;19.80;53.40
19567;DHT22;9930;49.240;8.548;2023-03-19T14:23:26;19.80;53.40
19567;DHT22;9930;49.240;8.548;2023-03-19T14:26:05;19.80;53.40
19567;DHT22;9930;49.240;8.548;2023-03-19T14:28:52;19.90;53.20
19567;DHT22;9930;49.240;8.548;2023-03-19T14:31:35;19.90;53.20
19567;DHT22;9930;49.240;8.548;2023-03-19T14:34:31;19.90;53.20
19567;DHT22;9930;49.240;8.548;2023-03-19T14:40:31;19.90;53.20
19567;DHT22;9930;49.240;8.548;2023-03-19T14:47:01;19.80;53.20
19567;DHT22;9930;49.240;8.548;2023-03-19T14:55:40;19.80;53.40
19567;DHT22;9930;49.240;8.548;2023-03-19T14:58:11;19.80;53.30
19567;DHT22;9930;49.240;8.548;2023-03-19T15:00:44;19.80;53.40
19567;DHT22;9930;49.240;8.548;2023-03-19T15:03:31;19.70;54.20
19567;DHT22;9930;49.240;8.548;2023-03-19T15:06:06;19.70;53.80
19567;DHT22;9930;49.240;8.548;2023-03-19T15:08:37;19.60;53.90
19567;DHT22;9930;49.240;8.548;2023-03-19T15:11:21;19.60;54.00
19567;DHT22;9930;49.240;8.548;2023-03-19T15:16:56;19.60;54.00
19567;DHT22;9930;49.240;8.548;2023-03-19T15:19:36;19.50;54.00
19567;DHT22;9930;49.240;8.548;2023-03-19T15:22:14;19.50;54.10
19567;DHT22;9930;49.240;8.548;2023-03-19T15:24:47;19.50;54.00
19567;DHT22;9930;49.240;8.548;2023-03-19T15:29:44;19.50;54.30
19567;DHT22;9930;49.240;8.548;2023-03-19T15:32:10;19.50;54.40
19567;DHT22;9930;49.240;8.548;2023-03-19T15:34:36;19.40;54.40
19567;DHT22;9930;49.240;8.548;2023-03-19T15:37:11;19.50;54.30
19567;DHT22;9930;49.240;8.548;2023-03-19T15:39:46;19.50;54.40
19567;DHT22;9930;49.240;8.548;2023-03-19T15:42:16;19.50;54.30
19567;DHT22;9930;49.240;8.548;2023-03-19T15:44:49;19.50;54.40
19567;DHT22;9930;49.240;8.548;2023-03-19T15:47:22;19.50;54.50
19567;DHT22;9930;49.240;8.548;2023-03-19T15:50:14;19.60;54.40
19567;DHT22;9930;49.240;8.548;2023-03-19T15:52:51;19.60;54.50
19567;DHT22;9930;49.240;8.548;2023-03-19T15:55:20;19.60;54.40
19567;DHT22;9930;49.240;8.548;2023-03-19T15:57:54;19.70;54.40
19567;DHT22;9930;49.240;8.548;2023-03-19T16:00:29;19.70;55.00
19567;DHT22;9930;49.240;8.548;2023-03-19T16:02:59;19.80;54.40
19567;DHT22;9930;49.240;8.548;2023-03-19T16:05:28;19.80;54.40
19567;DHT22;9930;49.240;8.548;2023-03-19T16:08:21;19.80;54.30
19567;DHT22;9930;49.240;8.548;2023-03-19T16:10:49;19.80;54.10
19567;DHT22;9930;49.240;8.548;2023-03-19T16:15:59;19.80;54.10
19567;DHT22;9930;49.240;8.548;2023-03-19T16:18:30;19.80;54.00
19567;DHT22;9930;49.240;8.548;2023-03-19T16:21:15;19.80;53.80
19567;DHT22;9930;49.240;8.548;2023-03-19T16:23:49;19.80;53.90
19567;DHT22;9930;49.240;8.548;2023-03-19T16:26:20;19.70;53.80
19567;DHT22;9930;49.240;8.548;2023-03-19T16:31:50;19.60;53.80
19567;DHT22;9930;49.240;8.548;2023-03-19T16:42:44;19.30;53.90
19567;DHT22;9930;49.240;8.548;2023-03-19T16:45:30;19.30;53.90
19567;DHT22;9930;49.240;8.548;2023-03-19T16:48:06;19.20;53.80
19567;DHT22;9930;49.240;8.548;2023-03-19T16:50:35;19.10;53.80
19567;DHT22;9930;49.240;8.548;2023-03-19T16:53:31;19.10;53.90
19567;DHT22;9930;49.240;8.548;2023-03-19T16:56:00;19.00;54.10
19567;DHT22;9930;49.240;8.548;2023-03-19T17:00:59;18.90;54.40
19567;DHT22;9930;49.240;8.548;2023-03-19T17:03:26;18.80;54.40
19567;DHT22;9930;49.240;8.548;2023-03-19T17:05:55;18.80;54.50
19567;DHT22;9930;49.240;8.548;2023-03-19T17:08:21;18.70;54.50
19567;DHT22;9930;49.240;8.548;2023-03-19T17:10:49;18.70;54.60
19567;DHT22;9930;49.240;8.548;2023-03-19T17:13:26;18.60;54.80
19567;DHT22;9930;49.240;8.548;2023-03-19T17:16:02;18.50;54.90
19567;DHT22;9930;49.240;8.548;2023-03-19T17:18:35;18.40;54.90
19567;DHT22;9930;49.240;8.548;2023-03-19T17:23:56;18.30;55.10
19567;DHT22;9930;49.240;8.548;2023-03-19T17:26:25;18.30;55.00
19567;DHT22;9930;49.240;8.548;2023-03-19T17:28:56;18.20;55.10
19567;DHT22;9930;49.240;8.548;2023-03-19T17:31:29;18.10;55.20
19567;DHT22;9930;49.240;8.548;2023-03-19T17:34:12;18.10;55.30
19567;DHT22;9930;49.240;8.548;2023-03-19T17:36:42;18.00;55.40
19567;DHT22;9930;49.240;8.548;2023-03-19T17:39:10;17.90;55.20
19567;DHT22;9930;49.240;8.548;2023-03-19T17:41:36;17.90;55.40
19567;DHT22;9930;49.240;8.548;2023-03-19T17:44:02;17.80;55.70
19567;DHT22;9930;49.240;8.548;2023-03-19T17:46:43;17.80;56.00
19567;DHT22;9930;49.240;8.548;2023-03-19T17:51:50;17.70;56.60
19567;DHT22;9930;49.240;8.548;2023-03-19T17:54:16;17.60;56.50
19567;DHT22;9930;49.240;8.548;2023-03-19T17:56:42;17.60;56.90
19567;DHT22;9930;49.240;8.548;2023-03-19T17:59:12;17.50;57.00
19567;DHT22;9930;49.240;8.548;2023-03-19T18:01:40;17.50;57.30
19567;DHT22;9930;49.240;8.548;2023-03-19T18:04:19;17.40;57.40
19567;DHT22;9930;49.240;8.548;2023-03-19T18:06:49;17.40;58.20
19567;DHT22;9930;49.240;8.548;2023-03-19T18:09:22;17.30;58.00
19567;DHT22;9930;49.240;8.548;2023-03-19T18:11:50;17.30;58.40
19567;DHT22;9930;49.240;8.548;2023-03-19T18:14:16;17.20;58.30
19567;DHT22;9930;49.240;8.548;2023-03-19T18:16:45;17.20;58.60
19567;DHT22;9930;49.240;8.548;2023-03-19T18:19:40;17.10;58.80
19567;DHT22;9930;49.240;8.548;2023-03-19T18:22:17;17.00;59.50
19567;DHT22;9930;49.240;8.548;2023-03-19T18:24:46;17.00;59.10